createdAt,value
2023-03-07T00:02:20.657Z,1.90
2023-03-07T00:07:16.230Z,1.02
2023-03-07T00:09:43.753Z,1.17
2023-03-07T00:12:11.523Z,1.20
2023-03-07T00:14:39.047Z,1.13
2023-03-07T00:17:06.298Z,1.13
2023-03-07T00:19:34.952Z,1.20
2023-03-07T00:22:02.171Z,1.50
2023-03-07T00:24:29.477Z,1.63
2023-03-07T00:26:56.772Z,1.40
2023-03-07T00:29:23.954Z,1.55
2023-03-07T00:31:51.270Z,1.75
2023-03-07T00:34:18.476Z,1.02
2023-03-07T00:36:45.638Z,1.17
2023-03-07T00:39:12.712Z,1.52
2023-03-07T00:41:39.879Z,1.58
2023-03-07T00:44:07.637Z,1.58
2023-03-07T00:46:34.875Z,1.67
2023-03-07T00:49:02.256Z,1.33
2023-03-07T00:51:29.589Z,1.10
2023-03-07T00:53:56.960Z,0.88
2023-03-07T00:56:25.897Z,1.17
2023-03-07T00:58:53.437Z,0.88
2023-03-07T01:01:22.301Z,1.10
2023-03-07T01:03:56.291Z,0.60
2023-03-07T01:06:24.775Z,0.93
2023-03-07T01:08:52.194Z,0.68
2023-03-07T01:11:19.573Z,0.95
2023-03-07T01:13:46.958Z,0.55
2023-03-07T01:16:14.104Z,0.55
2023-03-07T01:18:41.309Z,0.50
2023-03-07T01:21:12.523Z,0.60
2023-03-07T01:23:39.644Z,0.50
2023-03-07T01:26:06.843Z,0.57
2023-03-07T01:28:33.930Z,0.80
2023-03-07T01:31:01.053Z,0.50
2023-03-07T01:33:28.217Z,0.50
2023-03-07T01:35:55.374Z,0.88
2023-03-07T01:38:22.657Z,0.70
2023-03-07T01:40:50.314Z,0.70
2023-03-07T01:43:28.693Z,0.50
2023-03-07T01:46:14.681Z,1.23
2023-03-07T01:48:41.752Z,0.75
2023-03-07T01:51:08.915Z,0.70
2023-03-07T01:53:36.206Z,0.73
2023-03-07T01:56:03.589Z,0.88
2023-03-07T01:58:30.895Z,0.85
2023-03-07T02:00:58.122Z,0.80
2023-03-07T02:03:33.285Z,0.90
2023-03-07T02:06:04.980Z,0.85
2023-03-07T02:08:33.580Z,0.70
2023-03-07T02:11:00.722Z,0.90
2023-03-07T02:13:27.940Z,0.75
2023-03-07T02:15:55.500Z,0.82
2023-03-07T02:18:26.047Z,0.90
2023-03-07T02:21:25.343Z,0.85
2023-03-07T02:23:59.774Z,1.52
2023-03-07T02:26:35.205Z,0.90
2023-03-07T02:29:02.877Z,0.65
2023-03-07T02:31:30.121Z,0.57
2023-03-07T02:33:57.597Z,0.40
2023-03-07T02:36:26.750Z,1.15
2023-03-07T02:38:54.637Z,0.50
2023-03-07T02:41:22.894Z,1.05
2023-03-07T02:43:50.108Z,0.70
2023-03-07T02:46:17.477Z,0.60
2023-03-07T02:48:44.572Z,0.43
2023-03-07T02:51:12.063Z,0.60
2023-03-07T02:53:39.611Z,0.90
2023-03-07T02:56:07.136Z,0.95
2023-03-07T02:58:34.522Z,0.75
2023-03-07T03:01:01.656Z,0.98
2023-03-07T03:03:28.784Z,0.85
2023-03-07T03:05:55.921Z,1.10
2023-03-07T03:08:23.003Z,1.20
2023-03-07T03:10:54.155Z,0.60
2023-03-07T03:13:21.443Z,0.77
2023-03-07T03:15:49.247Z,0.80
2023-03-07T03:18:17.350Z,0.90
2023-03-07T03:20:44.472Z,0.80
2023-03-07T03:23:11.533Z,0.47
2023-03-07T03:25:40.141Z,0.70
2023-03-07T03:28:08.383Z,1.35
2023-03-07T03:30:36.064Z,0.95
2023-03-07T03:33:04.100Z,1.05
2023-03-07T03:35:31.440Z,0.65
2023-03-07T03:37:58.644Z,1.00
2023-03-07T03:40:25.854Z,0.88
2023-03-07T03:42:54.014Z,0.60
2023-03-07T03:45:21.217Z,1.15
2023-03-07T03:47:50.385Z,0.70
2023-03-07T03:50:17.635Z,0.90
2023-03-07T03:52:45.282Z,0.52
2023-03-07T03:55:12.603Z,0.57
2023-03-07T03:57:39.706Z,0.93
2023-03-07T04:00:09.300Z,0.55
2023-03-07T04:02:36.657Z,0.75
2023-03-07T04:05:05.173Z,0.80
2023-03-07T04:07:32.935Z,1.02
2023-03-07T04:10:00.254Z,1.02
2023-03-07T04:12:27.720Z,0.80
2023-03-07T04:14:54.780Z,0.70
2023-03-07T04:17:21.852Z,0.52
2023-03-07T04:19:48.923Z,1.17
2023-03-07T04:22:16.189Z,1.10
2023-03-07T04:24:45.137Z,0.80
2023-03-07T04:27:12.371Z,1.02
2023-03-07T04:29:39.695Z,0.70
2023-03-07T04:32:07.044Z,0.50
2023-03-07T04:34:34.293Z,0.90
2023-03-07T04:37:01.433Z,0.40
2023-03-07T04:39:28.989Z,0.95
2023-03-07T04:41:56.425Z,0.77
2023-03-07T04:44:23.646Z,0.60
2023-03-07T04:46:50.878Z,0.73
2023-03-07T04:49:18.116Z,0.93
2023-03-07T04:51:45.269Z,1.58
2023-03-07T04:54:12.517Z,0.63
2023-03-07T04:56:39.674Z,0.70
2023-03-07T04:59:07.059Z,0.82
2023-03-07T05:01:34.355Z,0.82
2023-03-07T05:04:01.882Z,0.47
2023-03-07T05:06:30.123Z,0.30
2023-03-07T05:08:57.504Z,0.38
2023-03-07T05:11:25.040Z,0.93
2023-03-07T05:13:52.546Z,0.88
2023-03-07T05:16:19.949Z,0.85
2023-03-07T05:18:47.504Z,0.45
2023-03-07T05:21:15.010Z,1.02
2023-03-07T05:23:42.296Z,0.73
2023-03-07T05:26:09.686Z,0.80
2023-03-07T05:28:37.231Z,1.05
2023-03-07T05:31:04.719Z,1.88
2023-03-07T05:33:31.946Z,0.50
2023-03-07T05:36:02.216Z,1.15
2023-03-07T05:38:29.852Z,0.70
2023-03-07T05:40:56.982Z,1.08
2023-03-07T05:43:24.148Z,0.63
2023-03-07T05:45:51.733Z,0.90
2023-03-07T05:48:18.958Z,0.50
2023-03-07T05:50:46.180Z,0.60
2023-03-07T05:53:13.357Z,0.88
2023-03-07T05:55:40.471Z,0.70
2023-03-07T05:58:07.537Z,0.57
2023-03-07T06:00:34.721Z,0.50
2023-03-07T06:03:03.084Z,0.52
2023-03-07T06:05:30.381Z,0.70
2023-03-07T06:07:57.952Z,0.90
2023-03-07T06:10:25.826Z,1.15
2023-03-07T06:12:53.505Z,0.65
2023-03-07T06:15:21.313Z,1.38
2023-03-07T06:17:48.415Z,1.15
2023-03-07T06:20:16.496Z,0.85
2023-03-07T06:22:43.736Z,0.63
2023-03-07T06:25:11.193Z,0.57
2023-03-07T06:27:39.176Z,0.50
2023-03-07T06:30:07.092Z,0.80
2023-03-07T06:32:34.211Z,0.60
2023-03-07T06:35:01.392Z,1.15
2023-03-07T06:37:28.438Z,0.90
2023-03-07T06:39:55.808Z,0.85
2023-03-07T06:42:22.963Z,1.23
2023-03-07T06:44:50.192Z,0.57
2023-03-07T06:47:17.266Z,1.02
2023-03-07T06:49:44.377Z,0.70
2023-03-07T06:52:11.631Z,0.68
2023-03-07T06:54:38.818Z,0.65
2023-03-07T06:57:06.073Z,0.50
2023-03-07T06:59:33.177Z,0.50
2023-03-07T07:02:03.253Z,0.60
2023-03-07T07:04:30.581Z,0.90
2023-03-07T07:06:57.692Z,0.50
2023-03-07T07:09:24.786Z,0.40
2023-03-07T07:11:52.070Z,0.63
2023-03-07T07:14:19.447Z,0.47
2023-03-07T07:16:46.690Z,0.52
2023-03-07T07:19:13.908Z,0.30
2023-03-07T07:21:41.051Z,0.40
2023-03-07T07:24:08.483Z,0.70
2023-03-07T07:26:35.999Z,0.50
2023-03-07T07:29:03.102Z,0.57
2023-03-07T07:31:30.276Z,0.45
2023-03-07T07:33:57.728Z,0.45
2023-03-07T07:36:25.422Z,0.90
2023-03-07T07:38:52.817Z,0.75
2023-03-07T07:41:20.275Z,0.47
2023-03-07T07:43:50.139Z,0.52
2023-03-07T07:46:17.449Z,0.50
2023-03-07T07:48:45.164Z,0.30
2023-03-07T07:51:12.469Z,0.45
2023-03-07T07:53:39.942Z,0.50
2023-03-07T07:56:07.664Z,0.40
2023-03-07T07:58:35.101Z,0.73
2023-03-07T08:01:02.402Z,0.47
2023-03-07T08:03:29.793Z,0.85
2023-03-07T08:05:56.968Z,0.50
2023-03-07T08:08:24.062Z,0.30
2023-03-07T08:10:51.203Z,0.43
2023-03-07T08:13:18.274Z,0.82
2023-03-07T08:15:45.620Z,0.70
2023-03-07T08:18:13.203Z,0.70
2023-03-07T08:20:41.572Z,0.50
2023-03-07T08:23:08.857Z,1.17
2023-03-07T08:25:36.643Z,1.20
2023-03-07T08:28:05.680Z,1.02
2023-03-07T08:30:34.028Z,0.50
2023-03-07T08:33:01.210Z,1.13
2023-03-07T08:35:29.499Z,0.80
2023-03-07T08:37:59.301Z,0.43
2023-03-07T08:40:26.610Z,0.60
2023-03-07T08:42:55.203Z,0.65
2023-03-07T08:45:25.682Z,0.65
2023-03-07T08:47:53.648Z,0.60
2023-03-07T08:50:21.615Z,0.55
2023-03-07T08:52:48.882Z,0.40
2023-03-07T08:55:16.992Z,0.77
2023-03-07T08:57:45.642Z,1.23
2023-03-07T09:00:13.110Z,0.40
2023-03-07T09:02:40.790Z,0.70
2023-03-07T09:05:08.069Z,0.88
2023-03-07T09:07:35.343Z,0.70
2023-03-07T09:10:02.792Z,0.68
2023-03-07T09:12:29.958Z,1.15
2023-03-07T09:14:57.143Z,0.63
2023-03-07T09:17:24.301Z,0.43
2023-03-07T09:19:51.517Z,0.50
2023-03-07T09:22:18.837Z,0.82
2023-03-07T09:24:46.040Z,0.50
2023-03-07T09:27:13.128Z,0.50
2023-03-07T09:29:40.432Z,0.80
2023-03-07T09:32:07.667Z,0.95
2023-03-07T09:34:34.767Z,0.52
2023-03-07T09:37:01.923Z,0.90
2023-03-07T09:39:29.037Z,0.70
2023-03-07T09:42:01.257Z,1.08
2023-03-07T09:44:47.027Z,0.68
2023-03-07T09:47:23.066Z,0.80
2023-03-07T09:49:51.121Z,0.50
2023-03-07T09:52:20.437Z,0.98
2023-03-07T09:54:50.928Z,1.20
2023-03-07T09:57:22.610Z,0.40
2023-03-07T09:59:53.484Z,1.42
2023-03-07T10:02:33.674Z,1.23
2023-03-07T10:05:21.764Z,0.60
2023-03-07T10:07:49.405Z,1.10
2023-03-07T10:10:22.600Z,0.55
2023-03-07T10:13:08.375Z,0.50
2023-03-07T10:15:35.625Z,0.50
2023-03-07T10:18:18.049Z,0.45
2023-03-07T10:20:45.375Z,0.50
2023-03-07T10:23:31.174Z,0.70
2023-03-07T10:26:10.686Z,0.82
2023-03-07T10:28:42.170Z,0.70
2023-03-07T10:31:23.621Z,0.80
2023-03-07T10:33:51.480Z,0.52
2023-03-07T10:36:22.891Z,0.70
2023-03-07T10:38:50.129Z,0.77
2023-03-07T10:41:21.362Z,1.00
2023-03-07T10:43:49.781Z,0.50
2023-03-07T10:46:25.817Z,0.80
2023-03-07T10:48:56.748Z,1.02
2023-03-07T10:51:42.448Z,0.80
2023-03-07T10:54:14.711Z,0.77
2023-03-07T10:56:42.112Z,0.60
2023-03-07T10:59:10.132Z,1.00
2023-03-07T11:01:38.904Z,0.85
2023-03-07T11:04:07.504Z,0.52
2023-03-07T11:06:40.470Z,0.40
2023-03-07T11:09:30.897Z,1.05
2023-03-07T11:11:59.630Z,0.52
2023-03-07T11:14:28.387Z,0.75
2023-03-07T11:16:57.719Z,0.68
2023-03-07T11:19:57.274Z,0.40
2023-03-07T11:22:24.757Z,0.40
2023-03-07T11:24:51.975Z,0.22
2023-03-07T11:27:42.400Z,0.60
2023-03-07T11:30:16.988Z,0.70
2023-03-07T11:32:58.377Z,0.40
2023-03-07T11:35:31.337Z,0.40
2023-03-07T11:38:03.828Z,0.60
2023-03-07T11:40:34.539Z,0.35
2023-03-07T11:43:10.958Z,0.60
2023-03-07T11:45:59.174Z,0.52
2023-03-07T11:48:29.521Z,0.40
2023-03-07T11:51:00.462Z,0.40
2023-03-07T11:53:27.709Z,0.40
2023-03-07T11:56:13.603Z,0.75
2023-03-07T11:59:11.750Z,0.35
2023-03-07T12:01:55.569Z,0.52
2023-03-07T12:04:22.766Z,0.32
2023-03-07T12:07:13.182Z,0.30
2023-03-07T12:09:45.347Z,0.57
2023-03-07T12:12:31.089Z,0.65
2023-03-07T12:14:58.990Z,0.75
2023-03-07T12:17:33.910Z,0.43
2023-03-07T12:20:05.265Z,0.32
2023-03-07T12:22:56.037Z,0.90
2023-03-07T12:25:26.391Z,0.73
2023-03-07T12:27:59.440Z,0.95
2023-03-07T12:30:31.984Z,0.60
2023-03-07T12:32:59.725Z,0.50
2023-03-07T12:35:31.071Z,0.50
2023-03-07T12:38:18.068Z,0.43
2023-03-07T12:40:48.010Z,0.70
2023-03-07T12:43:28.146Z,0.68
2023-03-07T12:46:10.194Z,0.57
2023-03-07T12:48:42.012Z,0.88
2023-03-07T12:51:19.297Z,0.55
2023-03-07T12:53:50.438Z,0.40
2023-03-07T12:56:23.039Z,0.60
2023-03-07T12:58:56.203Z,0.68
2023-03-07T13:01:35.548Z,0.88
2023-03-07T13:04:16.712Z,0.80
2023-03-07T13:06:45.513Z,0.50
2023-03-07T13:09:23.878Z,0.43
2023-03-07T13:12:09.715Z,0.32
2023-03-07T13:14:46.198Z,0.50
2023-03-07T13:17:14.452Z,0.77
2023-03-07T13:19:42.801Z,0.50
2023-03-07T13:22:16.028Z,0.40
2023-03-07T13:24:44.225Z,0.50
2023-03-07T13:27:15.822Z,0.60
2023-03-07T13:30:01.857Z,0.70
2023-03-07T13:32:47.996Z,0.50
2023-03-07T13:35:33.646Z,0.68
2023-03-07T13:38:04.500Z,0.65
2023-03-07T13:40:37.870Z,0.50
2023-03-07T13:43:27.834Z,0.85
2023-03-07T13:45:56.939Z,0.82
2023-03-07T13:48:30.482Z,1.10
2023-03-07T13:50:57.793Z,0.65
2023-03-07T13:53:34.582Z,0.80
2023-03-07T13:56:05.047Z,1.17
2023-03-07T13:58:39.781Z,0.90
2023-03-07T14:01:13.469Z,0.60
2023-03-07T14:03:52.363Z,0.40
2023-03-07T14:06:23.916Z,0.60
2023-03-07T14:08:51.929Z,0.60
2023-03-07T14:11:24.103Z,1.05
2023-03-07T14:14:09.919Z,0.90
2023-03-07T14:16:47.782Z,1.02
2023-03-07T14:19:36.870Z,0.75
2023-03-07T14:22:19.269Z,0.70
2023-03-07T14:24:53.416Z,0.52
2023-03-07T14:27:20.517Z,0.50
2023-03-07T14:29:48.962Z,0.70
2023-03-07T14:32:35.433Z,0.93
2023-03-07T14:35:02.551Z,0.60
2023-03-07T14:37:31.058Z,0.90
2023-03-07T14:40:08.654Z,0.73
2023-03-07T14:42:40.289Z,0.40
2023-03-07T14:45:07.451Z,0.60
2023-03-07T14:48:03.842Z,0.93
2023-03-07T14:50:31.943Z,0.60
2023-03-07T14:53:03.289Z,0.65
2023-03-07T14:55:39.049Z,0.60
2023-03-07T14:58:06.570Z,0.65
2023-03-07T15:00:35.877Z,0.88
2023-03-07T15:03:04.787Z,0.70
2023-03-07T15:05:33.622Z,0.95
2023-03-07T15:08:00.931Z,0.50
2023-03-07T15:10:31.450Z,0.65
2023-03-07T15:12:58.947Z,0.75
2023-03-07T15:15:36.926Z,0.60
2023-03-07T15:18:06.733Z,0.98
2023-03-07T15:20:34.310Z,0.60
2023-03-07T15:23:03.838Z,0.50
2023-03-07T15:25:32.202Z,0.85
2023-03-07T15:28:04.502Z,0.90
2023-03-07T15:30:35.677Z,0.60
2023-03-07T15:33:11.790Z,0.60
2023-03-07T15:35:39.006Z,0.40
2023-03-07T15:38:26.030Z,0.47
2023-03-07T15:40:53.122Z,0.40
2023-03-07T15:43:23.573Z,0.52
2023-03-07T15:46:05.428Z,0.50
2023-03-07T15:48:43.380Z,0.60
2023-03-07T15:51:15.244Z,1.50
2023-03-07T15:53:43.302Z,1.23
2023-03-07T15:56:30.626Z,1.00
2023-03-07T15:59:01.805Z,0.73
2023-03-07T16:01:29.032Z,1.50
2023-03-07T16:04:05.605Z,0.85
2023-03-07T16:06:38.984Z,1.48
2023-03-07T16:09:06.754Z,0.52
2023-03-07T16:11:35.416Z,0.30
2023-03-07T16:14:04.321Z,0.13
2023-03-07T16:16:31.829Z,0.17
2023-03-07T16:18:59.090Z,0.28
2023-03-07T16:21:26.448Z,0.40
2023-03-07T16:23:53.684Z,0.43
2023-03-07T16:26:22.450Z,0.15
2023-03-07T16:28:50.341Z,0.28
2023-03-07T16:31:18.194Z,0.30
2023-03-07T16:33:46.310Z,0.17
2023-03-07T16:36:14.370Z,1.10
2023-03-07T16:38:41.621Z,0.20
2023-03-07T16:41:26.688Z,0.20
2023-03-07T16:43:55.310Z,0.10
2023-03-07T16:46:22.728Z,0.35
2023-03-07T16:48:50.098Z,0.35
2023-03-07T16:51:18.314Z,0.40
2023-03-07T16:53:45.881Z,0.30
2023-03-07T16:56:26.124Z,0.68
2023-03-07T16:58:53.409Z,0.40
2023-03-07T17:01:20.664Z,0.73
2023-03-07T17:03:48.060Z,0.70
2023-03-07T17:06:16.481Z,0.60
2023-03-07T17:08:47.088Z,0.57
2023-03-07T17:11:18.072Z,0.65
2023-03-07T17:13:45.924Z,0.52
2023-03-07T17:16:14.826Z,1.42
2023-03-07T17:18:42.524Z,0.70
2023-03-07T17:21:16.299Z,0.82
2023-03-07T17:23:45.095Z,0.75
2023-03-07T17:26:18.188Z,0.80
2023-03-07T17:28:45.999Z,1.05
2023-03-07T17:31:13.824Z,1.13
2023-03-07T17:33:41.068Z,0.77
2023-03-07T17:36:10.441Z,0.70
2023-03-07T17:38:37.973Z,0.70
2023-03-07T17:41:05.216Z,0.70
2023-03-07T17:43:33.500Z,0.90
2023-03-07T17:46:01.126Z,0.88
2023-03-07T17:48:28.435Z,0.80
2023-03-07T17:50:55.550Z,0.75
2023-03-07T17:53:22.722Z,0.70
2023-03-07T17:55:49.894Z,0.80
2023-03-07T17:58:17.058Z,0.68
2023-03-07T18:00:44.189Z,0.90
2023-03-07T18:03:11.436Z,1.38
2023-03-07T18:05:40.633Z,0.70
2023-03-07T18:08:07.928Z,0.57
2023-03-07T18:10:35.186Z,0.95
2023-03-07T18:13:02.426Z,0.45
2023-03-07T18:15:30.225Z,0.30
2023-03-07T18:17:58.518Z,0.45
2023-03-07T18:20:28.024Z,0.50
2023-03-07T18:22:55.239Z,0.70
2023-03-07T18:25:25.134Z,0.40
2023-03-07T18:27:52.634Z,0.57
2023-03-07T18:30:19.864Z,1.25
2023-03-07T18:32:47.112Z,0.57
2023-03-07T18:35:17.665Z,0.60
2023-03-07T18:37:45.500Z,0.40
2023-03-07T18:40:13.245Z,0.60
2023-03-07T18:42:42.422Z,0.55
2023-03-07T18:45:10.075Z,0.50
2023-03-07T18:47:37.283Z,0.90
2023-03-07T18:50:04.542Z,0.60
2023-03-07T18:52:31.627Z,0.43
2023-03-07T18:54:58.691Z,0.70
2023-03-07T18:57:25.816Z,0.80
2023-03-07T18:59:53.046Z,0.40
2023-03-07T19:02:20.246Z,0.40
2023-03-07T19:04:47.333Z,0.20
2023-03-07T19:07:14.535Z,0.40
2023-03-07T19:09:43.992Z,0.60
2023-03-07T19:12:12.067Z,0.30
2023-03-07T19:14:39.166Z,0.40
2023-03-07T19:17:06.297Z,0.93
2023-03-07T19:19:33.347Z,0.50
2023-03-07T19:22:00.478Z,0.50
2023-03-07T19:24:27.770Z,1.55
2023-03-07T19:26:55.874Z,1.25
2023-03-07T19:29:23.024Z,1.15
2023-03-07T19:31:50.279Z,0.90
2023-03-07T19:34:17.440Z,1.10
2023-03-07T19:36:44.587Z,0.80
2023-03-07T19:39:20.287Z,1.00
2023-03-07T19:41:50.263Z,1.08
2023-03-07T19:44:17.493Z,1.20
2023-03-07T19:46:47.751Z,1.10
2023-03-07T19:49:15.601Z,1.65
2023-03-07T19:51:42.835Z,1.50
2023-03-07T19:54:10.815Z,1.15
2023-03-07T19:56:38.519Z,1.38
2023-03-07T19:59:08.439Z,1.30
2023-03-07T20:01:35.608Z,1.98
2023-03-07T20:04:04.748Z,2.42
2023-03-07T20:06:32.362Z,1.77
2023-03-07T20:09:01.064Z,1.30
2023-03-07T20:11:32.532Z,1.40
2023-03-07T20:14:00.912Z,1.20
2023-03-07T20:16:29.504Z,1.58
2023-03-07T20:19:01.380Z,0.93
2023-03-07T20:21:29.219Z,1.40
2023-03-07T20:23:59.342Z,1.48
2023-03-07T20:26:34.429Z,1.55
2023-03-07T20:29:02.367Z,1.70
2023-03-07T20:31:29.652Z,1.67
2023-03-07T20:33:58.078Z,1.30
2023-03-07T20:36:26.563Z,1.67
2023-03-07T20:38:57.911Z,2.05
2023-03-07T20:41:26.408Z,1.45
2023-03-07T20:43:53.906Z,1.35
2023-03-07T20:46:22.098Z,1.90
2023-03-07T20:48:49.425Z,1.15
2023-03-07T20:51:21.284Z,1.50
2023-03-07T20:54:08.670Z,1.17
2023-03-07T20:56:36.519Z,1.00
2023-03-07T20:59:04.009Z,1.63
2023-03-07T21:01:31.917Z,1.83
2023-03-07T21:04:06.234Z,1.70
2023-03-07T21:06:34.503Z,1.60
2023-03-07T21:09:01.703Z,1.63
2023-03-07T21:11:31.502Z,1.70
2023-03-07T21:13:58.719Z,1.40
2023-03-07T21:16:27.398Z,1.50
2023-03-07T21:19:01.666Z,1.25
2023-03-07T21:21:29.779Z,0.90
2023-03-07T21:23:57.044Z,1.63
2023-03-07T21:26:25.805Z,1.10
2023-03-07T21:28:53.061Z,1.02
2023-03-07T21:31:22.008Z,1.15
2023-03-07T21:33:52.338Z,2.40
2023-03-07T21:36:20.201Z,2.20
2023-03-07T21:38:48.191Z,1.45
2023-03-07T21:41:15.860Z,1.70
2023-03-07T21:43:43.040Z,1.60
2023-03-07T21:46:11.890Z,1.48
2023-03-07T21:48:39.393Z,1.45
2023-03-07T21:51:07.083Z,1.15
2023-03-07T21:53:34.714Z,1.30
2023-03-07T21:56:03.610Z,1.30
2023-03-07T21:58:31.937Z,0.93
2023-03-07T22:00:59.734Z,1.05
2023-03-07T22:03:28.794Z,0.95
2023-03-07T22:05:57.413Z,1.25
2023-03-07T22:08:24.727Z,1.10
2023-03-07T22:11:03.223Z,1.33
2023-03-07T22:13:34.850Z,1.30
2023-03-07T22:16:06.283Z,1.25
2023-03-07T22:18:33.505Z,1.08
2023-03-07T22:21:05.862Z,0.95
2023-03-07T22:23:33.045Z,1.00
2023-03-07T22:26:03.380Z,0.85
2023-03-07T22:28:30.509Z,0.60
2023-03-07T22:31:00.926Z,1.17
2023-03-07T22:33:27.991Z,1.30
2023-03-07T22:36:02.354Z,0.93
2023-03-07T22:38:29.851Z,0.70
2023-03-07T22:41:07.447Z,1.05
2023-03-07T22:43:35.554Z,0.90
2023-03-07T22:46:02.719Z,0.80
2023-03-07T22:48:29.863Z,0.80
2023-03-07T22:50:57.408Z,0.90
2023-03-07T22:53:27.060Z,1.30
2023-03-07T22:55:54.804Z,1.13
2023-03-07T22:58:21.977Z,1.08
2023-03-07T23:00:49.100Z,1.08
2023-03-07T23:03:16.329Z,1.00
2023-03-07T23:05:44.276Z,1.00
2023-03-07T23:08:11.405Z,1.45
2023-03-07T23:10:38.489Z,0.90
2023-03-07T23:13:05.959Z,1.52
2023-03-07T23:15:33.380Z,1.48
2023-03-07T23:18:00.629Z,1.58
2023-03-07T23:20:29.031Z,1.40
2023-03-07T23:22:56.264Z,1.70
2023-03-07T23:25:23.462Z,1.70
2023-03-07T23:27:50.912Z,1.73
2023-03-07T23:30:18.153Z,1.65
2023-03-07T23:32:45.619Z,1.48
2023-03-07T23:35:12.915Z,2.00
2023-03-07T23:37:41.804Z,2.20
2023-03-07T23:40:10.575Z,2.53
2023-03-07T23:42:37.699Z,1.92
2023-03-07T23:45:05.186Z,2.15
2023-03-07T23:47:32.339Z,1.95
2023-03-07T23:49:59.413Z,2.10
2023-03-07T23:52:26.543Z,2.50
2023-03-07T23:54:53.645Z,2.63
2023-03-07T23:57:20.849Z,2.40
2023-03-07T23:59:48.838Z,2.75
